sensor_id;sensor_type;location;lat;lon;timestamp;pressure;altitude;pressure_sealevel;temperature
23992;BMP280;12205;50.600;4.608;2022-11-23T00:02:22;97742.00;;;8.73
23992;BMP280;12205;50.600;4.608;2022-11-23T00:04:50;97738.19;;;8.74
23992;BMP280;12205;50.600;4.608;2022-11-23T00:07:17;97754.13;;;8.77
23992;BMP280;12205;50.600;4.608;2022-11-23T00:09:44;97749.94;;;8.76
23992;BMP280;12205;50.600;4.608;2022-11-23T00:12:11;97754.16;;;8.74
23992;BMP280;12205;50.600;4.608;2022-11-23T00:14:38;97756.00;;;8.77
23992;BMP280;12205;50.600;4.608;2022-11-23T00:17:06;97767.03;;;8.79
23992;BMP280;12205;50.600;4.608;2022-11-23T00:19:33;97779.94;;;8.80
23992;BMP280;12205;50.600;4.608;2022-11-23T00:22:00;97786.06;;;8.77
23992;BMP280;12205;50.600;4.608;2022-11-23T00:24:28;97800.94;;;8.75
23992;BMP280;12205;50.600;4.608;2022-11-23T00:26:55;97803.94;;;8.77
23992;BMP280;12205;50.600;4.608;2022-11-23T00:29:22;97810.34;;;8.83
23992;BMP280;12205;50.600;4.608;2022-11-23T00:31:49;97819.03;;;8.87
23992;BMP280;12205;50.600;4.608;2022-11-23T00:34:17;97841.47;;;8.86
23992;BMP280;12205;50.600;4.608;2022-11-23T00:36:44;97863.63;;;8.83
23992;BMP280;12205;50.600;4.608;2022-11-23T00:39:12;97876.94;;;8.83
23992;BMP280;12205;50.600;4.608;2022-11-23T00:41:40;97867.03;;;8.80
23992;BMP280;12205;50.600;4.608;2022-11-23T00:44:07;97854.53;;;8.77
23992;BMP280;12205;50.600;4.608;2022-11-23T00:46:34;97857.56;;;8.79
23992;BMP280;12205;50.600;4.608;2022-11-23T00:49:04;97834.38;;;8.76
23992;BMP280;12205;50.600;4.608;2022-11-23T00:51:35;97822.56;;;8.77
23992;BMP280;12205;50.600;4.608;2022-11-23T00:54:04;97815.72;;;8.76
23992;BMP280;12205;50.600;4.608;2022-11-23T00:56:34;97796.78;;;8.70
23992;BMP280;12205;50.600;4.608;2022-11-23T00:59:02;97798.25;;;8.75
23992;BMP280;12205;50.600;4.608;2022-11-23T01:01:33;97817.34;;;8.70
23992;BMP280;12205;50.600;4.608;2022-11-23T01:04:04;97821.94;;;8.69
23992;BMP280;12205;50.600;4.608;2022-11-23T01:06:35;97825.75;;;8.65
23992;BMP280;12205;50.600;4.608;2022-11-23T01:09:06;97827.91;;;8.77
23992;BMP280;12205;50.600;4.608;2022-11-23T01:11:34;97843.06;;;8.80
23992;BMP280;12205;50.600;4.608;2022-11-23T01:14:02;97867.81;;;8.80
23992;BMP280;12205;50.600;4.608;2022-11-23T01:16:31;97893.69;;;8.80
23992;BMP280;12205;50.600;4.608;2022-11-23T01:19:01;97903.59;;;8.79
23992;BMP280;12205;50.600;4.608;2022-11-23T01:21:30;97926.72;;;8.86
23992;BMP280;12205;50.600;4.608;2022-11-23T01:24:03;97941.91;;;8.89
23992;BMP280;12205;50.600;4.608;2022-11-23T01:26:30;97949.94;;;8.86
23992;BMP280;12205;50.600;4.608;2022-11-23T01:28:57;97969.25;;;8.93
23992;BMP280;12205;50.600;4.608;2022-11-23T01:31:25;97966.16;;;8.98
23992;BMP280;12205;50.600;4.608;2022-11-23T01:33:53;97992.78;;;8.98
23992;BMP280;12205;50.600;4.608;2022-11-23T01:36:24;97986.00;;;8.94
23992;BMP280;12205;50.600;4.608;2022-11-23T01:38:52;97995.81;;;9.01
23992;BMP280;12205;50.600;4.608;2022-11-23T01:41:24;98011.03;;;9.04
23992;BMP280;12205;50.600;4.608;2022-11-23T01:43:53;98018.53;;;9.09
23992;BMP280;12205;50.600;4.608;2022-11-23T01:46:20;98026.22;;;9.03
23992;BMP280;12205;50.600;4.608;2022-11-23T01:48:52;98020.84;;;9.07
23992;BMP280;12205;50.600;4.608;2022-11-23T01:51:25;98034.91;;;9.11
23992;BMP280;12205;50.600;4.608;2022-11-23T01:53:57;98050.53;;;9.09
23992;BMP280;12205;50.600;4.608;2022-11-23T01:56:34;98051.75;;;9.01
23992;BMP280;12205;50.600;4.608;2022-11-23T01:59:07;98062.13;;;8.91
23992;BMP280;12205;50.600;4.608;2022-11-23T02:01:35;98038.44;;;9.01
23992;BMP280;12205;50.600;4.608;2022-11-23T02:04:06;98044.94;;;8.99
23992;BMP280;12205;50.600;4.608;2022-11-23T02:06:34;98044.94;;;8.99
23992;BMP280;12205;50.600;4.608;2022-11-23T02:09:02;98050.97;;;9.04
23992;BMP280;12205;50.600;4.608;2022-11-23T02:11:30;98058.97;;;9.04
23992;BMP280;12205;50.600;4.608;2022-11-23T02:13:58;98057.78;;;9.05
23992;BMP280;12205;50.600;4.608;2022-11-23T02:16:25;98065.84;;;8.97
23992;BMP280;12205;50.600;4.608;2022-11-23T02:18:52;98062.06;;;8.98
23992;BMP280;12205;50.600;4.608;2022-11-23T02:21:22;98055.19;;;8.97
23992;BMP280;12205;50.600;4.608;2022-11-23T02:23:58;98074.22;;;8.99
23992;BMP280;12205;50.600;4.608;2022-11-23T02:26:32;98080.00;;;8.94
23992;BMP280;12205;50.600;4.608;2022-11-23T02:29:06;98081.13;;;8.93
23992;BMP280;12205;50.600;4.608;2022-11-23T02:31:34;98077.25;;;8.98
23992;BMP280;12205;50.600;4.608;2022-11-23T02:34:01;98091.75;;;8.97
23992;BMP280;12205;50.600;4.608;2022-11-23T02:36:39;98094.00;;;8.98
23992;BMP280;12205;50.600;4.608;2022-11-23T02:39:11;98089.44;;;9.03
23992;BMP280;12205;50.600;4.608;2022-11-23T02:41:43;98093.25;;;8.98
23992;BMP280;12205;50.600;4.608;2022-11-23T02:44:24;98099.34;;;8.98
23992;BMP280;12205;50.600;4.608;2022-11-23T02:46:52;98099.34;;;8.98
23992;BMP280;12205;50.600;4.608;2022-11-23T02:49:19;98108.47;;;8.97
23992;BMP280;12205;50.600;4.608;2022-11-23T02:51:50;98114.19;;;8.99
23992;BMP280;12205;50.600;4.608;2022-11-23T02:54:17;98097.50;;;8.88
23992;BMP280;12205;50.600;4.608;2022-11-23T02:56:46;98102.50;;;8.86
23992;BMP280;12205;50.600;4.608;2022-11-23T02:59:13;98112.44;;;8.82
23992;BMP280;12205;50.600;4.608;2022-11-23T03:01:42;98111.69;;;8.78
23992;BMP280;12205;50.600;4.608;2022-11-23T03:04:12;98107.94;;;8.72
23992;BMP280;12205;50.600;4.608;2022-11-23T03:06:39;98111.06;;;8.59
23992;BMP280;12205;50.600;4.608;2022-11-23T03:09:07;98100.38;;;8.67
23992;BMP280;12205;50.600;4.608;2022-11-23T03:11:34;98105.31;;;8.65
23992;BMP280;12205;50.600;4.608;2022-11-23T03:14:03;98103.47;;;8.61
23992;BMP280;12205;50.600;4.608;2022-11-23T03:16:38;98105.03;;;8.55
23992;BMP280;12205;50.600;4.608;2022-11-23T03:19:06;98097.06;;;8.52
23992;BMP280;12205;50.600;4.608;2022-11-23T03:21:34;98095.94;;;8.49
23992;BMP280;12205;50.600;4.608;2022-11-23T03:24:06;98092.13;;;8.50
23992;BMP280;12205;50.600;4.608;2022-11-23T03:26:34;98088.34;;;8.44
23992;BMP280;12205;50.600;4.608;2022-11-23T03:29:10;98081.50;;;8.50
23992;BMP280;12205;50.600;4.608;2022-11-23T03:31:39;98080.72;;;8.53
23992;BMP280;12205;50.600;4.608;2022-11-23T03:34:10;98083.72;;;8.55
23992;BMP280;12205;50.600;4.608;2022-11-23T03:36:39;98095.50;;;8.54
23992;BMP280;12205;50.600;4.608;2022-11-23T03:39:06;98095.13;;;8.56
23992;BMP280;12205;50.600;4.608;2022-11-23T03:41:52;98105.03;;;8.55
23992;BMP280;12205;50.600;4.608;2022-11-23T03:44:24;98097.41;;;8.57
23992;BMP280;12205;50.600;4.608;2022-11-23T03:46:51;98097.38;;;8.61
23992;BMP280;12205;50.600;4.608;2022-11-23T03:49:18;98104.19;;;8.66
23992;BMP280;12205;50.600;4.608;2022-11-23T03:51:45;98110.25;;;8.70
23992;BMP280;12205;50.600;4.608;2022-11-23T03:54:13;98121.28;;;8.65
23992;BMP280;12205;50.600;4.608;2022-11-23T03:56:40;98127.75;;;8.67
23992;BMP280;12205;50.600;4.608;2022-11-23T03:59:07;98126.22;;;8.70
23992;BMP280;12205;50.600;4.608;2022-11-23T04:01:36;98129.22;;;8.72
23992;BMP280;12205;50.600;4.608;2022-11-23T04:04:07;98130.75;;;8.73
23992;BMP280;12205;50.600;4.608;2022-11-23T04:06:52;98129.22;;;8.72
23992;BMP280;12205;50.600;4.608;2022-11-23T04:09:24;98140.59;;;8.76
23992;BMP280;12205;50.600;4.608;2022-11-23T04:12:04;98142.13;;;8.77
23992;BMP280;12205;50.600;4.608;2022-11-23T04:14:31;98145.19;;;8.79
23992;BMP280;12205;50.600;4.608;2022-11-23T04:17:00;98147.41;;;8.84
23992;BMP280;12205;50.600;4.608;2022-11-23T04:19:29;98144.00;;;8.80
23992;BMP280;12205;50.600;4.608;2022-11-23T04:21:57;98146.66;;;8.80
23992;BMP280;12205;50.600;4.608;2022-11-23T04:24:26;98149.28;;;8.87
23992;BMP280;12205;50.600;4.608;2022-11-23T04:26:56;98155.81;;;8.79
23992;BMP280;12205;50.600;4.608;2022-11-23T04:29:24;98155.84;;;8.75
23992;BMP280;12205;50.600;4.608;2022-11-23T04:31:53;98147.53;;;8.70
23992;BMP280;12205;50.600;4.608;2022-11-23T04:34:22;98150.56;;;8.68
23992;BMP280;12205;50.600;4.608;2022-11-23T04:36:52;98151.25;;;8.76
23992;BMP280;12205;50.600;4.608;2022-11-23T04:39:26;98152.38;;;8.78
23992;BMP280;12205;50.600;4.608;2022-11-23T04:42:06;98145.91;;;8.83
23992;BMP280;12205;50.600;4.608;2022-11-23T04:44:33;98153.13;;;8.83
23992;BMP280;12205;50.600;4.608;2022-11-23T04:47:04;98158.09;;;8.77
23992;BMP280;12205;50.600;4.608;2022-11-23T04:49:36;98154.31;;;8.78
23992;BMP280;12205;50.600;4.608;2022-11-23T04:52:04;98159.63;;;8.78
23992;BMP280;12205;50.600;4.608;2022-11-23T04:54:38;98149.72;;;8.78
23992;BMP280;12205;50.600;4.608;2022-11-23T04:57:08;98161.50;;;8.81
23992;BMP280;12205;50.600;4.608;2022-11-23T04:59:37;98171.81;;;8.75
23992;BMP280;12205;50.600;4.608;2022-11-23T05:02:04;98168.03;;;8.73
23992;BMP280;12205;50.600;4.608;2022-11-23T05:04:39;98168.03;;;8.73
23992;BMP280;12205;50.600;4.608;2022-11-23T05:07:06;98160.44;;;8.68
23992;BMP280;12205;50.600;4.608;2022-11-23T05:09:34;98160.84;;;8.66
23992;BMP280;12205;50.600;4.608;2022-11-23T05:12:10;98152.91;;;8.59
23992;BMP280;12205;50.600;4.608;2022-11-23T05:14:39;98149.91;;;8.53
23992;BMP280;12205;50.600;4.608;2022-11-23T05:17:08;98140.44;;;8.49
23992;BMP280;12205;50.600;4.608;2022-11-23T05:19:38;98134.00;;;8.42
23992;BMP280;12205;50.600;4.608;2022-11-23T05:22:06;98132.88;;;8.40
23992;BMP280;12205;50.600;4.608;2022-11-23T05:24:36;98138.97;;;8.37
23992;BMP280;12205;50.600;4.608;2022-11-23T05:27:08;98146.97;;;8.37
23992;BMP280;12205;50.600;4.608;2022-11-23T05:29:35;98140.88;;;8.33
23992;BMP280;12205;50.600;4.608;2022-11-23T05:32:05;98152.34;;;8.30
23992;BMP280;12205;50.600;4.608;2022-11-23T05:34:32;98153.13;;;8.26
23992;BMP280;12205;50.600;4.608;2022-11-23T05:37:03;98149.31;;;8.24
23992;BMP280;12205;50.600;4.608;2022-11-23T05:39:30;98143.28;;;8.16
23992;BMP280;12205;50.600;4.608;2022-11-23T05:41:59;98147.81;;;8.19
23992;BMP280;12205;50.600;4.608;2022-11-23T05:44:32;98149.00;;;8.11
23992;BMP280;12205;50.600;4.608;2022-11-23T05:46:59;98135.72;;;8.04
23992;BMP280;12205;50.600;4.608;2022-11-23T05:49:30;98137.25;;;8.01
23992;BMP280;12205;50.600;4.608;2022-11-23T05:51:57;98127.41;;;7.98
23992;BMP280;12205;50.600;4.608;2022-11-23T05:54:27;98122.81;;;7.99
23992;BMP280;12205;50.600;4.608;2022-11-23T05:57:02;98112.97;;;7.96
23992;BMP280;12205;50.600;4.608;2022-11-23T05:59:38;98119.09;;;7.89
23992;BMP280;12205;50.600;4.608;2022-11-23T06:02:09;98106.94;;;7.84
23992;BMP280;12205;50.600;4.608;2022-11-23T06:04:36;98116.06;;;7.83
23992;BMP280;12205;50.600;4.608;2022-11-23T06:07:07;98095.56;;;7.77
23992;BMP280;12205;50.600;4.608;2022-11-23T06:09:54;98100.13;;;7.76
23992;BMP280;12205;50.600;4.608;2022-11-23T06:12:21;98079.69;;;7.66
23992;BMP280;12205;50.600;4.608;2022-11-23T06:14:48;98084.22;;;7.65
23992;BMP280;12205;50.600;4.608;2022-11-23T06:17:21;98074.34;;;7.59
23992;BMP280;12205;50.600;4.608;2022-11-23T06:19:50;98067.56;;;7.50
23992;BMP280;12205;50.600;4.608;2022-11-23T06:22:17;98074.41;;;7.44
23992;BMP280;12205;50.600;4.608;2022-11-23T06:25:05;98062.31;;;7.40
23992;BMP280;12205;50.600;4.608;2022-11-23T06:28:00;98058.50;;;7.33
23992;BMP280;12205;50.600;4.608;2022-11-23T06:30:38;98050.91;;;7.32
23992;BMP280;12205;50.600;4.608;2022-11-23T06:33:06;98041.81;;;7.33
23992;BMP280;12205;50.600;4.608;2022-11-23T06:35:52;98047.13;;;7.26
23992;BMP280;12205;50.600;4.608;2022-11-23T06:38:20;98050.56;;;7.26
23992;BMP280;12205;50.600;4.608;2022-11-23T06:40:58;98045.63;;;7.21
23992;BMP280;12205;50.600;4.608;2022-11-23T06:43:28;98048.66;;;7.20
23992;BMP280;12205;50.600;4.608;2022-11-23T06:45:56;98042.25;;;7.13
23992;BMP280;12205;50.600;4.608;2022-11-23T06:48:27;98050.59;;;7.08
23992;BMP280;12205;50.600;4.608;2022-11-23T06:50:58;98047.94;;;7.08
23992;BMP280;12205;50.600;4.608;2022-11-23T06:53:27;98054.78;;;7.02
23992;BMP280;12205;50.600;4.608;2022-11-23T06:56:00;98042.63;;;6.94
23992;BMP280;12205;50.600;4.608;2022-11-23T06:58:30;98054.38;;;6.96
23992;BMP280;12205;50.600;4.608;2022-11-23T07:01:00;98051.00;;;6.89
23992;BMP280;12205;50.600;4.608;2022-11-23T07:03:32;98045.31;;;6.87
23992;BMP280;12205;50.600;4.608;2022-11-23T07:06:06;98042.66;;;6.87
23992;BMP280;12205;50.600;4.608;2022-11-23T07:08:35;98052.50;;;6.82
23992;BMP280;12205;50.600;4.608;2022-11-23T07:11:20;98032.03;;;6.65
23992;BMP280;12205;50.600;4.608;2022-11-23T07:13:47;98049.09;;;6.71
23992;BMP280;12205;50.600;4.608;2022-11-23T07:16:14;98054.03;;;6.73
23992;BMP280;12205;50.600;4.608;2022-11-23T07:18:42;98049.47;;;6.73
23992;BMP280;12205;50.600;4.608;2022-11-23T07:21:09;98040.41;;;6.71
23992;BMP280;12205;50.600;4.608;2022-11-23T07:23:36;98049.47;;;6.73
23992;BMP280;12205;50.600;4.608;2022-11-23T07:26:07;98052.53;;;6.75
23992;BMP280;12205;50.600;4.608;2022-11-23T07:28:35;98057.84;;;6.75
23992;BMP280;12205;50.600;4.608;2022-11-23T07:31:03;98053.66;;;6.74
23992;BMP280;12205;50.600;4.608;2022-11-23T07:33:30;98053.66;;;6.74
23992;BMP280;12205;50.600;4.608;2022-11-23T07:36:00;98059.38;;;6.76
23992;BMP280;12205;50.600;4.608;2022-11-23T07:38:28;98061.63;;;6.78
23992;BMP280;12205;50.600;4.608;2022-11-23T07:40:56;98063.13;;;6.90
23992;BMP280;12205;50.600;4.608;2022-11-23T07:43:51;98063.88;;;6.97
23992;BMP280;12205;50.600;4.608;2022-11-23T07:46:18;98074.09;;;7.06
23992;BMP280;12205;50.600;4.608;2022-11-23T07:48:45;98082.47;;;7.08
23992;BMP280;12205;50.600;4.608;2022-11-23T07:51:12;98088.16;;;7.14
23992;BMP280;12205;50.600;4.608;2022-11-23T07:53:40;98077.50;;;7.25
23992;BMP280;12205;50.600;4.608;2022-11-23T07:56:08;98090.38;;;7.33
23992;BMP280;12205;50.600;4.608;2022-11-23T07:58:35;98091.91;;;7.42
23992;BMP280;12205;50.600;4.608;2022-11-23T08:01:03;98104.78;;;7.43
23992;BMP280;12205;50.600;4.608;2022-11-23T08:03:30;98098.31;;;7.51
23992;BMP280;12205;50.600;4.608;2022-11-23T08:05:57;98103.22;;;7.57
23992;BMP280;12205;50.600;4.608;2022-11-23T08:08:25;98113.84;;;7.64
23992;BMP280;12205;50.600;4.608;2022-11-23T08:10:52;98105.50;;;7.65
23992;BMP280;12205;50.600;4.608;2022-11-23T08:13:19;98110.78;;;7.76
23992;BMP280;12205;50.600;4.608;2022-11-23T08:15:46;98114.56;;;7.82
23992;BMP280;12205;50.600;4.608;2022-11-23T08:18:16;98124.41;;;7.85
23992;BMP280;12205;50.600;4.608;2022-11-23T08:20:43;98108.41;;;7.93
23992;BMP280;12205;50.600;4.608;2022-11-23T08:23:10;98118.28;;;7.96
23992;BMP280;12205;50.600;4.608;2022-11-23T08:25:37;98110.66;;;8.01
23992;BMP280;12205;50.600;4.608;2022-11-23T08:28:05;98121.28;;;8.05
23992;BMP280;12205;50.600;4.608;2022-11-23T08:30:33;98115.19;;;8.08
23992;BMP280;12205;50.600;4.608;2022-11-23T08:33:02;98117.44;;;8.13
23992;BMP280;12205;50.600;4.608;2022-11-23T08:35:32;98112.09;;;8.20
23992;BMP280;12205;50.600;4.608;2022-11-23T08:37:59;98119.72;;;8.18
23992;BMP280;12205;50.600;4.608;2022-11-23T08:40:26;98118.19;;;8.21
23992;BMP280;12205;50.600;4.608;2022-11-23T08:42:54;98117.41;;;8.20
23992;BMP280;12205;50.600;4.608;2022-11-23T08:45:21;98121.19;;;8.23
23992;BMP280;12205;50.600;4.608;2022-11-23T08:47:48;98133.34;;;8.24
23992;BMP280;12205;50.600;4.608;2022-11-23T08:50:16;98148.53;;;8.31
23992;BMP280;12205;50.600;4.608;2022-11-23T08:52:45;98144.72;;;8.32
23992;BMP280;12205;50.600;4.608;2022-11-23T08:55:12;98134.03;;;8.35
23992;BMP280;12205;50.600;4.608;2022-11-23T08:57:40;98122.66;;;8.35
23992;BMP280;12205;50.600;4.608;2022-11-23T09:00:08;98100.59;;;8.38
23992;BMP280;12205;50.600;4.608;2022-11-23T09:02:35;98092.13;;;8.47
23992;BMP280;12205;50.600;4.608;2022-11-23T09:05:03;98093.66;;;8.51
23992;BMP280;12205;50.600;4.608;2022-11-23T09:07:32;98091.34;;;8.53
23992;BMP280;12205;50.600;4.608;2022-11-23T09:10:00;98089.06;;;8.55
23992;BMP280;12205;50.600;4.608;2022-11-23T09:12:27;98104.31;;;8.51
23992;BMP280;12205;50.600;4.608;2022-11-23T09:14:55;98108.09;;;8.47
23992;BMP280;12205;50.600;4.608;2022-11-23T09:17:22;98127.88;;;8.49
23992;BMP280;12205;50.600;4.608;2022-11-23T09:19:49;98113.03;;;8.48
23992;BMP280;12205;50.600;4.608;2022-11-23T09:22:16;98106.91;;;8.58
23992;BMP280;12205;50.600;4.608;2022-11-23T09:24:43;98120.22;;;8.58
23992;BMP280;12205;50.600;4.608;2022-11-23T09:27:11;98117.84;;;8.68
23992;BMP280;12205;50.600;4.608;2022-11-23T09:29:38;98118.22;;;8.70
23992;BMP280;12205;50.600;4.608;2022-11-23T09:32:06;98117.81;;;8.75
23992;BMP280;12205;50.600;4.608;2022-11-23T09:34:33;98129.19;;;8.79
23992;BMP280;12205;50.600;4.608;2022-11-23T09:37:00;98126.16;;;8.77
23992;BMP280;12205;50.600;4.608;2022-11-23T09:39:27;98129.19;;;8.79
23992;BMP280;12205;50.600;4.608;2022-11-23T09:42:31;98127.28;;;8.76
23992;BMP280;12205;50.600;4.608;2022-11-23T09:45:16;98136.00;;;8.84
23992;BMP280;12205;50.600;4.608;2022-11-23T09:47:59;98125.31;;;8.87
23992;BMP280;12205;50.600;4.608;2022-11-23T09:50:45;98116.84;;;8.99
23992;BMP280;12205;50.600;4.608;2022-11-23T09:53:16;98127.03;;;9.12
23992;BMP280;12205;50.600;4.608;2022-11-23T09:55:47;98117.50;;;9.11
23992;BMP280;12205;50.600;4.608;2022-11-23T09:58:19;98121.22;;;9.17
23992;BMP280;12205;50.600;4.608;2022-11-23T10:00:50;98124.38;;;9.12
23992;BMP280;12205;50.600;4.608;2022-11-23T10:03:19;98104.53;;;9.13
23992;BMP280;12205;50.600;4.608;2022-11-23T10:05:58;98105.59;;;9.23
23992;BMP280;12205;50.600;4.608;2022-11-23T10:08:40;98100.13;;;9.33
23992;BMP280;12205;50.600;4.608;2022-11-23T10:11:34;98101.88;;;9.51
23992;BMP280;12205;50.600;4.608;2022-11-23T10:14:25;98105.13;;;9.62
23992;BMP280;12205;50.600;4.608;2022-11-23T10:17:08;98092.53;;;9.66
23992;BMP280;12205;50.600;4.608;2022-11-23T10:19:57;98113.06;;;9.69
23992;BMP280;12205;50.600;4.608;2022-11-23T10:22:39;98102.31;;;9.77
23992;BMP280;12205;50.600;4.608;2022-11-23T10:25:16;98103.81;;;9.78
23992;BMP280;12205;50.600;4.608;2022-11-23T10:27:49;98098.44;;;9.81
23992;BMP280;12205;50.600;4.608;2022-11-23T10:30:19;98090.75;;;9.87
23992;BMP280;12205;50.600;4.608;2022-11-23T10:32:54;98091.56;;;9.84
23992;BMP280;12205;50.600;4.608;2022-11-23T10:35:28;98100.53;;;9.97
23992;BMP280;12205;50.600;4.608;2022-11-23T10:38:10;98079.00;;;10.08
23992;BMP280;12205;50.600;4.608;2022-11-23T10:40:43;98065.25;;;10.09
23992;BMP280;12205;50.600;4.608;2022-11-23T10:43:19;98080.91;;;10.11
23992;BMP280;12205;50.600;4.608;2022-11-23T10:45:48;98090.34;;;10.16
23992;BMP280;12205;50.600;4.608;2022-11-23T10:48:33;98091.78;;;10.24
23992;BMP280;12205;50.600;4.608;2022-11-23T10:51:16;98086.13;;;10.18
23992;BMP280;12205;50.600;4.608;2022-11-23T10:53:51;98089.44;;;10.26
23992;BMP280;12205;50.600;4.608;2022-11-23T10:56:22;98082.25;;;10.23
23992;BMP280;12205;50.600;4.608;2022-11-23T10:58:50;98075.59;;;10.35
23992;BMP280;12205;50.600;4.608;2022-11-23T11:01:21;98069.78;;;10.40
23992;BMP280;12205;50.600;4.608;2022-11-23T11:03:50;98087.66;;;10.43
23992;BMP280;12205;50.600;4.608;2022-11-23T11:06:25;98085.41;;;10.41
23992;BMP280;12205;50.600;4.608;2022-11-23T11:08:56;98080.00;;;10.45
23992;BMP280;12205;50.600;4.608;2022-11-23T11:11:26;98072.97;;;10.55
23992;BMP280;12205;50.600;4.608;2022-11-23T11:14:05;98074.38;;;10.63
23992;BMP280;12205;50.600;4.608;2022-11-23T11:16:47;98081.75;;;10.79
23992;BMP280;12205;50.600;4.608;2022-11-23T11:19:26;98082.31;;;10.90
23992;BMP280;12205;50.600;4.608;2022-11-23T11:21:54;98079.78;;;11.03
23992;BMP280;12205;50.600;4.608;2022-11-23T11:24:28;98074.31;;;11.10
23992;BMP280;12205;50.600;4.608;2022-11-23T11:26:59;98080.66;;;11.16
23992;BMP280;12205;50.600;4.608;2022-11-23T11:29:33;98082.38;;;11.27
23992;BMP280;12205;50.600;4.608;2022-11-23T11:32:08;98080.88;;;11.26
23992;BMP280;12205;50.600;4.608;2022-11-23T11:34:44;98092.47;;;11.19
23992;BMP280;12205;50.600;4.608;2022-11-23T11:37:24;98069.53;;;11.22
23992;BMP280;12205;50.600;4.608;2022-11-23T11:39:57;98087.16;;;11.15
23992;BMP280;12205;50.600;4.608;2022-11-23T11:42:35;98082.47;;;11.23
23992;BMP280;12205;50.600;4.608;2022-11-23T11:45:15;98087.25;;;11.32
23992;BMP280;12205;50.600;4.608;2022-11-23T11:47:50;98075.47;;;11.29
23992;BMP280;12205;50.600;4.608;2022-11-23T11:50:24;98074.72;;;11.29
23992;BMP280;12205;50.600;4.608;2022-11-23T11:53:00;98070.91;;;11.30
23992;BMP280;12205;50.600;4.608;2022-11-23T11:55:40;98078.06;;;11.33
23992;BMP280;12205;50.600;4.608;2022-11-23T11:58:11;98073.88;;;11.32
23992;BMP280;12205;50.600;4.608;2022-11-23T12:00:41;98073.06;;;11.35
23992;BMP280;12205;50.600;4.608;2022-11-23T12:03:20;98063.19;;;11.32
23992;BMP280;12205;50.600;4.608;2022-11-23T12:05:52;98061.00;;;11.27
23992;BMP280;12205;50.600;4.608;2022-11-23T12:08:28;98056.69;;;11.33
23992;BMP280;12205;50.600;4.608;2022-11-23T12:10:58;98057.97;;;11.25
23992;BMP280;12205;50.600;4.608;2022-11-23T12:13:31;98058.72;;;11.25
23992;BMP280;12205;50.600;4.608;2022-11-23T12:16:09;98057.97;;;11.25
23992;BMP280;12205;50.600;4.608;2022-11-23T12:19:05;98070.59;;;11.24
23992;BMP280;12205;50.600;4.608;2022-11-23T12:22:02;98074.03;;;11.25
23992;BMP280;12205;50.600;4.608;2022-11-23T12:24:55;98084.88;;;11.17
23992;BMP280;12205;50.600;4.608;2022-11-23T12:27:38;98078.84;;;11.13
23992;BMP280;12205;50.600;4.608;2022-11-23T12:30:21;98058.38;;;11.03
23992;BMP280;12205;50.600;4.608;2022-11-23T12:36:53;98027.53;;;10.78
23992;BMP280;12205;50.600;4.608;2022-11-23T12:39:48;98010.25;;;10.63
23992;BMP280;12205;50.600;4.608;2022-11-23T12:42:25;97989.16;;;10.49
23992;BMP280;12205;50.600;4.608;2022-11-23T12:45:16;97976.03;;;10.34
23992;BMP280;12205;50.600;4.608;2022-11-23T12:47:54;97945.28;;;10.26
23992;BMP280;12205;50.600;4.608;2022-11-23T12:50:32;97919.44;;;10.23
23992;BMP280;12205;50.600;4.608;2022-11-23T12:53:26;97897.84;;;10.14
23992;BMP280;12205;50.600;4.608;2022-11-23T12:56:06;97900.31;;;10.04
23992;BMP280;12205;50.600;4.608;2022-11-23T12:58:39;97890.56;;;9.94
23992;BMP280;12205;50.600;4.608;2022-11-23T13:01:15;97884.50;;;9.90
23992;BMP280;12205;50.600;4.608;2022-11-23T13:07:53;97874.44;;;9.78
23992;BMP280;12205;50.600;4.608;2022-11-23T13:10:53;97899.81;;;9.62
23992;BMP280;12205;50.600;4.608;2022-11-23T13:13:54;97879.44;;;9.52
23992;BMP280;12205;50.600;4.608;2022-11-23T13:16:51;97851.41;;;9.40
23992;BMP280;12205;50.600;4.608;2022-11-23T13:22:41;97817.31;;;9.28
23992;BMP280;12205;50.600;4.608;2022-11-23T13:25:21;97810.59;;;9.20
23992;BMP280;12205;50.600;4.608;2022-11-23T13:28:02;97798.06;;;9.16
23992;BMP280;12205;50.600;4.608;2022-11-23T13:30:33;97785.50;;;9.17
23992;BMP280;12205;50.600;4.608;2022-11-23T13:43:16;97751.09;;;9.03
23992;BMP280;12205;50.600;4.608;2022-11-23T13:45:45;97745.59;;;8.86
23992;BMP280;12205;50.600;4.608;2022-11-23T13:48:17;97735.06;;;8.79
23992;BMP280;12205;50.600;4.608;2022-11-23T13:50:57;97717.91;;;8.80
23992;BMP280;12205;50.600;4.608;2022-11-23T13:53:30;97706.56;;;8.76
23992;BMP280;12205;50.600;4.608;2022-11-23T13:56:17;97708.44;;;8.79
23992;BMP280;12205;50.600;4.608;2022-11-23T13:58:54;97724.41;;;8.79
23992;BMP280;12205;50.600;4.608;2022-11-23T14:02:02;97736.34;;;8.71
23992;BMP280;12205;50.600;4.608;2022-11-23T14:04:48;97732.50;;;8.72
23992;BMP280;12205;50.600;4.608;2022-11-23T14:07:18;97739.34;;;8.73
23992;BMP280;12205;50.600;4.608;2022-11-23T14:09:53;97726.72;;;8.77
23992;BMP280;12205;50.600;4.608;2022-11-23T14:12:32;97700.00;;;8.84
23992;BMP280;12205;50.600;4.608;2022-11-23T14:15:09;97713.72;;;8.83
23992;BMP280;12205;50.600;4.608;2022-11-23T14:18:30;97748.78;;;8.77
23992;BMP280;12205;50.600;4.608;2022-11-23T14:21:12;97740.41;;;8.79
23992;BMP280;12205;50.600;4.608;2022-11-23T14:24:29;97723.03;;;8.67
23992;BMP280;12205;50.600;4.608;2022-11-23T14:27:18;97745.34;;;8.77
23992;BMP280;12205;50.600;4.608;2022-11-23T14:30:20;97745.00;;;8.75
23992;BMP280;12205;50.600;4.608;2022-11-23T14:33:04;97745.00;;;8.75
23992;BMP280;12205;50.600;4.608;2022-11-23T14:35:46;97748.00;;;8.77
23992;BMP280;12205;50.600;4.608;2022-11-23T14:41:31;97734.28;;;8.82
23992;BMP280;12205;50.600;4.608;2022-11-23T14:44:02;97767.75;;;8.83
23992;BMP280;12205;50.600;4.608;2022-11-23T14:46:32;97776.88;;;8.82
23992;BMP280;12205;50.600;4.608;2022-11-23T14:49:04;97791.72;;;8.83
23992;BMP280;12205;50.600;4.608;2022-11-23T14:51:33;97808.91;;;8.75
23992;BMP280;12205;50.600;4.608;2022-11-23T14:54:08;97787.16;;;8.80
23992;BMP280;12205;50.600;4.608;2022-11-23T14:56:40;97779.09;;;8.87
23992;BMP280;12205;50.600;4.608;2022-11-23T14:59:19;97775.06;;;9.03
23992;BMP280;12205;50.600;4.608;2022-11-23T15:01:52;97774.09;;;9.16
23992;BMP280;12205;50.600;4.608;2022-11-23T15:04:25;97786.84;;;9.29
23992;BMP280;12205;50.600;4.608;2022-11-23T15:07:00;97810.38;;;9.34
23992;BMP280;12205;50.600;4.608;2022-11-23T15:09:43;97835.94;;;9.31
23992;BMP280;12205;50.600;4.608;2022-11-23T15:12:22;97846.91;;;9.33
23992;BMP280;12205;50.600;4.608;2022-11-23T15:14:51;97843.09;;;9.34
23992;BMP280;12205;50.600;4.608;2022-11-23T15:17:21;97875.91;;;9.31